createdAt,value
2022-09-14T00:02:52.468Z,10.00
2022-09-14T00:07:55.460Z,9.80
2022-09-14T00:13:00.509Z,9.40
2022-09-14T00:18:03.264Z,10.00
2022-09-14T00:23:05.993Z,10.60
2022-09-14T00:28:10.125Z,11.00
2022-09-14T00:33:13.407Z,9.80
2022-09-14T00:38:16.172Z,9.60
2022-09-14T00:43:20.272Z,9.60
2022-09-14T00:48:24.589Z,10.60
2022-09-14T00:53:27.362Z,10.00
2022-09-14T00:58:31.421Z,9.00
2022-09-14T01:03:34.208Z,9.40
2022-09-14T01:08:47.080Z,9.20
2022-09-14T01:13:56.072Z,9.00
2022-09-14T01:19:00.142Z,10.80
2022-09-14T01:24:06.069Z,9.40
2022-09-14T01:29:13.417Z,10.20
2022-09-14T01:34:17.913Z,10.00
2022-09-14T01:39:20.771Z,10.00
2022-09-14T01:44:26.592Z,10.00
2022-09-14T01:49:32.228Z,9.60
2022-09-14T01:54:36.141Z,9.60
2022-09-14T01:59:42.499Z,10.00
2022-09-14T02:04:47.722Z,11.00
2022-09-14T02:09:50.555Z,9.00
2022-09-14T02:14:54.822Z,9.40
2022-09-14T02:19:58.109Z,10.40
2022-09-14T02:25:00.876Z,9.80
2022-09-14T02:30:05.682Z,9.00
2022-09-14T02:35:11.825Z,10.40
2022-09-14T02:40:19.212Z,10.20
2022-09-14T02:45:26.818Z,9.20
2022-09-14T02:50:31.206Z,9.60
2022-09-14T02:55:35.989Z,10.40
2022-09-14T03:00:41.899Z,9.00
2022-09-14T03:05:44.823Z,9.20
2022-09-14T03:10:47.745Z,8.80
2022-09-14T03:15:52.074Z,9.00
2022-09-14T03:20:54.873Z,8.80
2022-09-14T03:25:57.631Z,8.00
2022-09-14T03:31:03.098Z,8.80
2022-09-14T03:36:11.257Z,8.40
2022-09-14T03:41:14.454Z,7.00
2022-09-14T03:46:20.609Z,8.00
2022-09-14T03:51:23.539Z,9.60
2022-09-14T03:56:26.308Z,7.20
2022-09-14T04:01:30.390Z,7.00
2022-09-14T04:06:33.600Z,8.00
2022-09-14T04:11:36.299Z,7.60
2022-09-14T04:16:40.324Z,6.80
2022-09-14T04:21:42.991Z,6.80
2022-09-14T04:26:45.752Z,7.80
2022-09-14T04:31:49.849Z,7.80
2022-09-14T04:36:52.527Z,7.60
2022-09-14T04:41:55.320Z,6.80
2022-09-14T04:46:59.551Z,8.00
2022-09-14T04:52:02.607Z,8.00
2022-09-14T04:57:05.603Z,8.00
2022-09-14T05:02:09.647Z,7.60
2022-09-14T05:07:12.354Z,8.00
2022-09-14T05:12:15.062Z,8.20
2022-09-14T05:17:19.090Z,7.00
2022-09-14T05:22:22.693Z,6.60
2022-09-14T05:27:25.347Z,7.80
2022-09-14T05:32:29.314Z,7.00
2022-09-14T05:37:32.052Z,5.00
2022-09-14T05:42:34.670Z,7.00
2022-09-14T05:47:39.349Z,8.00
2022-09-14T05:52:42.139Z,8.00
2022-09-14T05:57:44.825Z,5.20
2022-09-14T06:02:49.242Z,7.20
2022-09-14T06:07:52.363Z,8.00
2022-09-14T06:12:55.632Z,7.20
2022-09-14T06:17:59.737Z,7.40
2022-09-14T06:23:02.368Z,7.00
2022-09-14T06:28:05.099Z,8.20
2022-09-14T06:33:09.030Z,5.00
2022-09-14T06:38:11.739Z,7.00
2022-09-14T06:43:14.379Z,7.00
2022-09-14T06:48:18.397Z,4.80
2022-09-14T06:53:21.102Z,7.60
2022-09-14T06:58:23.724Z,7.00
2022-09-14T07:03:27.856Z,6.80
2022-09-14T07:08:30.568Z,5.40
2022-09-14T07:13:33.394Z,5.00
2022-09-14T07:18:37.481Z,6.80
2022-09-14T07:23:41.130Z,4.00
2022-09-14T07:28:44.278Z,3.80
2022-09-14T07:33:48.494Z,5.20
2022-09-14T07:39:01.290Z,5.60
2022-09-14T07:44:05.378Z,5.00
2022-09-14T07:49:09.639Z,6.00
2022-09-14T07:54:13.548Z,4.80
2022-09-14T07:59:35.925Z,5.00
2022-09-14T08:04:40.392Z,4.00
2022-09-14T08:09:43.097Z,4.80
2022-09-14T08:14:45.746Z,5.00
2022-09-14T08:19:49.715Z,4.00
2022-09-14T08:24:52.468Z,4.40
2022-09-14T08:29:55.382Z,4.00
2022-09-14T08:34:59.434Z,4.20
2022-09-14T08:40:02.478Z,8.00
2022-09-14T08:45:09.585Z,8.00
2022-09-14T08:50:17.179Z,9.00
2022-09-14T08:55:25.530Z,8.00
2022-09-14T09:00:30.984Z,8.00
2022-09-14T09:05:37.725Z,9.40
2022-09-14T09:10:40.377Z,8.00
2022-09-14T09:15:46.112Z,9.80
2022-09-14T09:20:52.331Z,9.00
2022-09-14T09:25:58.829Z,8.00
2022-09-14T09:31:04.774Z,7.40
2022-09-14T09:36:28.765Z,8.40
2022-09-14T09:41:32.518Z,8.00
2022-09-14T09:46:35.803Z,7.00
2022-09-14T09:51:39.937Z,7.00
2022-09-14T09:56:51.909Z,6.80
2022-09-14T10:01:56.337Z,6.00
2022-09-14T10:07:00.572Z,6.40
2022-09-14T10:12:04.069Z,5.80
2022-09-14T10:17:08.133Z,6.40
2022-09-14T10:22:24.300Z,5.80
2022-09-14T10:27:50.532Z,7.00
2022-09-14T10:32:56.594Z,6.60
2022-09-14T10:38:17.328Z,7.00
2022-09-14T10:43:23.171Z,5.60
2022-09-14T10:48:44.619Z,6.80
2022-09-14T10:53:52.829Z,5.80
2022-09-14T10:59:07.187Z,6.20
2022-09-14T11:04:20.023Z,4.80
2022-09-14T11:09:25.599Z,6.00
2022-09-14T11:14:38.662Z,5.20
2022-09-14T11:19:45.275Z,6.80
2022-09-14T11:24:51.204Z,6.40
2022-09-14T11:29:54.904Z,6.60
2022-09-14T11:35:00.091Z,4.20
2022-09-14T11:40:19.300Z,3.80
2022-09-14T11:45:24.829Z,5.60
2022-09-14T11:50:28.597Z,3.00
2022-09-14T11:55:32.586Z,5.60
2022-09-14T12:00:47.246Z,5.20
2022-09-14T12:05:50.172Z,3.20
2022-09-14T12:11:22.198Z,4.00
2022-09-14T12:16:24.997Z,4.00
2022-09-14T12:21:27.723Z,5.00
2022-09-14T12:26:35.044Z,4.00
2022-09-14T12:32:02.216Z,4.40
2022-09-14T12:37:29.554Z,4.00
2022-09-14T12:42:33.621Z,3.00
2022-09-14T12:47:54.627Z,5.60
2022-09-14T12:53:06.923Z,3.00
2022-09-14T12:58:18.550Z,3.80
2022-09-14T13:03:28.747Z,5.80
2022-09-14T13:08:31.491Z,3.00
2022-09-14T13:13:35.751Z,4.00
2022-09-14T13:18:38.901Z,4.00
2022-09-14T13:23:42.738Z,4.00
2022-09-14T13:28:47.613Z,4.00
2022-09-14T13:33:51.284Z,3.80
2022-09-14T13:38:54.224Z,4.60
2022-09-14T13:43:58.630Z,3.80
2022-09-14T13:49:01.316Z,4.00
2022-09-14T13:54:17.752Z,4.00
2022-09-14T13:59:22.511Z,4.20
2022-09-14T14:04:30.724Z,4.00
2022-09-14T14:09:45.086Z,4.80
2022-09-14T14:14:57.953Z,4.00
2022-09-14T14:20:01.427Z,3.00
2022-09-14T14:25:18.873Z,3.00
2022-09-14T14:30:23.236Z,5.60
2022-09-14T14:35:27.081Z,2.80
2022-09-14T14:40:30.142Z,3.60
2022-09-14T14:45:36.548Z,4.20
2022-09-14T14:50:39.537Z,3.40
2022-09-14T14:55:42.241Z,4.00
2022-09-14T15:00:47.607Z,4.00
2022-09-14T15:05:50.508Z,3.80
2022-09-14T15:10:56.703Z,4.00
2022-09-14T15:16:00.729Z,4.00
2022-09-14T15:21:03.432Z,3.00
2022-09-14T15:26:06.087Z,3.00
2022-09-14T15:31:10.087Z,4.00
2022-09-14T15:36:12.855Z,3.00
2022-09-14T15:41:15.636Z,3.40
2022-09-14T15:46:19.617Z,3.00
2022-09-14T15:51:22.310Z,4.00
2022-09-14T15:56:25.006Z,3.00
2022-09-14T16:01:29.169Z,3.00
2022-09-14T16:06:31.963Z,3.60
2022-09-14T16:11:34.752Z,4.80
2022-09-14T16:16:39.512Z,2.60
2022-09-14T16:21:42.783Z,3.00
2022-09-14T16:26:45.641Z,4.00
2022-09-14T16:31:49.929Z,3.20
2022-09-14T16:36:52.866Z,3.20
2022-09-14T16:41:55.797Z,3.00
2022-09-14T16:46:59.977Z,2.60
2022-09-14T16:52:03.182Z,4.00
2022-09-14T16:57:05.928Z,4.00
2022-09-14T17:02:11.299Z,3.00
2022-09-14T17:07:13.930Z,3.80
2022-09-14T17:12:16.635Z,3.00
2022-09-14T17:17:20.902Z,3.00
2022-09-14T17:22:23.577Z,4.00
2022-09-14T17:27:26.327Z,3.20
2022-09-14T17:32:30.405Z,3.80
2022-09-14T17:37:33.198Z,3.00
2022-09-14T17:42:36.119Z,4.00
2022-09-14T17:47:40.173Z,4.20
2022-09-14T17:52:43.116Z,3.20
2022-09-14T17:57:46.050Z,4.20
2022-09-14T18:02:52.644Z,4.00
2022-09-14T18:07:55.672Z,4.40
2022-09-14T18:12:58.811Z,4.00
2022-09-14T18:18:03.186Z,4.00
2022-09-14T18:23:05.799Z,4.00
2022-09-14T18:28:08.430Z,6.80
2022-09-14T18:33:12.437Z,4.00
2022-09-14T18:38:15.219Z,3.40
2022-09-14T18:43:17.947Z,5.00
2022-09-14T18:48:21.931Z,4.00
2022-09-14T18:53:24.701Z,5.00
2022-09-14T18:58:27.709Z,4.80
2022-09-14T19:03:31.970Z,4.00
2022-09-14T19:08:34.776Z,3.40
2022-09-14T19:13:37.412Z,4.20
2022-09-14T19:18:41.697Z,3.00
2022-09-14T19:23:44.443Z,4.20
2022-09-14T19:28:47.243Z,4.20
2022-09-14T19:33:51.818Z,4.00
2022-09-14T19:38:55.204Z,3.60
2022-09-14T19:43:57.978Z,4.00
2022-09-14T19:49:02.339Z,3.80
2022-09-14T19:54:05.296Z,3.80
2022-09-14T19:59:08.313Z,3.60
2022-09-14T20:04:12.442Z,3.40
2022-09-14T20:09:16.486Z,3.00
2022-09-14T20:14:21.395Z,4.00
2022-09-14T20:19:26.769Z,4.00
2022-09-14T20:24:31.586Z,3.00
2022-09-14T20:29:35.329Z,5.80
2022-09-14T20:34:39.465Z,4.00
2022-09-14T20:39:42.195Z,4.00
2022-09-14T20:44:45.074Z,4.00
2022-09-14T20:49:49.621Z,3.40
2022-09-14T20:54:52.417Z,4.00
2022-09-14T20:59:55.160Z,4.00
2022-09-14T21:04:59.967Z,3.60
2022-09-14T21:10:02.692Z,5.00
2022-09-14T21:15:06.007Z,4.40
2022-09-14T21:20:10.439Z,3.40
2022-09-14T21:25:13.289Z,3.00
2022-09-14T21:30:16.147Z,3.00
2022-09-14T21:35:20.267Z,3.40
2022-09-14T21:40:23.409Z,3.00
2022-09-14T21:45:26.307Z,3.20
2022-09-14T21:50:30.306Z,3.00
2022-09-14T21:55:33.019Z,4.00
2022-09-14T22:00:35.903Z,3.00
2022-09-14T22:05:40.089Z,4.00
2022-09-14T22:10:42.760Z,2.80
2022-09-14T22:15:45.442Z,3.00
2022-09-14T22:20:57.653Z,3.00
2022-09-14T22:26:00.881Z,3.00
2022-09-14T22:31:03.580Z,2.80
2022-09-14T22:36:08.211Z,3.40
2022-09-14T22:41:11.607Z,3.00
2022-09-14T22:46:14.586Z,3.00
2022-09-14T22:51:19.497Z,2.00
2022-09-14T22:56:23.749Z,2.80
2022-09-14T23:01:27.604Z,3.00
2022-09-14T23:06:32.731Z,3.00
2022-09-14T23:11:35.424Z,3.00
2022-09-14T23:16:38.181Z,3.00
2022-09-14T23:21:42.243Z,3.00
2022-09-14T23:26:44.944Z,2.00
2022-09-14T23:31:47.617Z,2.60
2022-09-14T23:36:51.680Z,2.00
2022-09-14T23:41:54.337Z,2.00
2022-09-14T23:46:57.117Z,1.80
2022-09-14T23:52:01.322Z,2.00
2022-09-14T23:57:04.206Z,2.00
